KGPT/GPT METAR and TAF weather

Enter ICAO airport designator
Station Type Date Time Source
KGPT METAR 2020/04/10 18:53 UTC NOAA

KGPT 101853Z 35012KT 10SM CLR 22/06 A3000 RMK AO2 SLP157 T02170056


Station Type Date Time Source
KGPT Decoded METAR 2020/04/10 18:53 UTC NOAA

GULFPORT-BILOXI REG AIRPORT , MS, United States (KGPT) 30-25N 089-05W 14M
Apr 10, 2020 - 02:53 PM EDT / 2020.04.10 1853 UTC
Wind: from the N (350 degrees) at 14 MPH (12 KT):0
Visibility: 10 mile(s):0
Sky conditions: clear
Temperature: 71.1 F (21.7 C)
Dew Point: 42.1 F (5.6 C)
Relative Humidity: 35%
Pressure (altimeter): 30 in. Hg (1015 hPa)
ob: KGPT 101853Z 35012KT 10SM CLR 22/06 A3000 RMK AO2 SLP157 T02170056
cycle: 19

Station Type Date Time Source
KGPT TAF 2020/04/10 19:27 UTC NOAA

TAF
AMD KGPT 101924Z 1019/1118 36012KT P6SM OVC250
FM110100 06005KT P6SM BKN250
FM111400 09009KT P6SM BKN250
FM111700 12012G21KT P6SM BKN200

Example: see airport list